sensor_id;sensor_type;location;lat;lon;timestamp;P1;durP1;ratioP1;P2;durP2;ratioP2
92;SDS011;16232;48.800;9.002;2023-08-31T00:00:22;6.63;;;3.90;;
92;SDS011;16232;48.800;9.002;2023-08-31T00:02:50;4.30;;;3.40;;
92;SDS011;16232;48.800;9.002;2023-08-31T00:05:18;5.87;;;4.27;;
92;SDS011;16232;48.800;9.002;2023-08-31T00:07:47;7.93;;;4.23;;
92;SDS011;16232;48.800;9.002;2023-08-31T00:10:15;5.37;;;3.23;;
92;SDS011;16232;48.800;9.002;2023-08-31T00:12:42;3.60;;;3.30;;
92;SDS011;16232;48.800;9.002;2023-08-31T00:15:10;7.37;;;4.47;;
92;SDS011;16232;48.800;9.002;2023-08-31T00:17:38;4.50;;;4.10;;
92;SDS011;16232;48.800;9.002;2023-08-31T00:20:06;6.57;;;4.40;;
92;SDS011;16232;48.800;9.002;2023-08-31T00:22:37;5.93;;;4.53;;
92;SDS011;16232;48.800;9.002;2023-08-31T00:25:06;6.27;;;4.73;;
92;SDS011;16232;48.800;9.002;2023-08-31T00:27:34;4.67;;;3.73;;
92;SDS011;16232;48.800;9.002;2023-08-31T00:30:03;6.17;;;4.33;;
92;SDS011;16232;48.800;9.002;2023-08-31T00:32:32;5.63;;;4.40;;
92;SDS011;16232;48.800;9.002;2023-08-31T00:35:00;5.93;;;4.53;;
92;SDS011;16232;48.800;9.002;2023-08-31T00:37:28;6.80;;;5.10;;
92;SDS011;16232;48.800;9.002;2023-08-31T00:39:56;5.03;;;4.53;;
92;SDS011;16232;48.800;9.002;2023-08-31T00:42:25;6.47;;;4.50;;
92;SDS011;16232;48.800;9.002;2023-08-31T00:44:54;5.27;;;3.90;;
92;SDS011;16232;48.800;9.002;2023-08-31T00:47:22;6.47;;;4.90;;
92;SDS011;16232;48.800;9.002;2023-08-31T00:49:50;5.20;;;4.47;;
92;SDS011;16232;48.800;9.002;2023-08-31T00:52:18;4.73;;;4.17;;
92;SDS011;16232;48.800;9.002;2023-08-31T00:54:45;5.60;;;3.80;;
92;SDS011;16232;48.800;9.002;2023-08-31T00:57:13;4.73;;;3.70;;
92;SDS011;16232;48.800;9.002;2023-08-31T00:59:42;8.20;;;5.30;;
92;SDS011;16232;48.800;9.002;2023-08-31T01:02:11;5.00;;;4.37;;
92;SDS011;16232;48.800;9.002;2023-08-31T01:04:42;5.53;;;5.03;;
92;SDS011;16232;48.800;9.002;2023-08-31T01:07:17;5.60;;;4.30;;
92;SDS011;16232;48.800;9.002;2023-08-31T01:09:50;5.27;;;4.67;;
92;SDS011;16232;48.800;9.002;2023-08-31T01:12:22;6.53;;;5.37;;
92;SDS011;16232;48.800;9.002;2023-08-31T01:14:59;7.13;;;5.60;;
92;SDS011;16232;48.800;9.002;2023-08-31T01:17:28;6.00;;;4.97;;
92;SDS011;16232;48.800;9.002;2023-08-31T01:19:58;7.03;;;4.63;;
92;SDS011;16232;48.800;9.002;2023-08-31T01:22:29;10.67;;;5.00;;
92;SDS011;16232;48.800;9.002;2023-08-31T01:24:59;9.00;;;5.90;;
92;SDS011;16232;48.800;9.002;2023-08-31T01:27:29;9.23;;;5.87;;
92;SDS011;16232;48.800;9.002;2023-08-31T01:29:57;7.43;;;6.03;;
92;SDS011;16232;48.800;9.002;2023-08-31T01:32:25;8.67;;;6.17;;
92;SDS011;16232;48.800;9.002;2023-08-31T01:34:52;8.13;;;6.17;;
92;SDS011;16232;48.800;9.002;2023-08-31T01:37:26;6.20;;;5.23;;
92;SDS011;16232;48.800;9.002;2023-08-31T01:39:58;6.03;;;5.43;;
92;SDS011;16232;48.800;9.002;2023-08-31T01:42:30;10.03;;;6.77;;
92;SDS011;16232;48.800;9.002;2023-08-31T01:44:58;6.60;;;5.27;;
92;SDS011;16232;48.800;9.002;2023-08-31T01:47:28;5.83;;;5.13;;
92;SDS011;16232;48.800;9.002;2023-08-31T01:49:56;9.97;;;5.20;;
92;SDS011;16232;48.800;9.002;2023-08-31T01:52:23;5.30;;;4.80;;
92;SDS011;16232;48.800;9.002;2023-08-31T01:54:51;8.93;;;5.17;;
92;SDS011;16232;48.800;9.002;2023-08-31T01:57:18;7.80;;;5.83;;
92;SDS011;16232;48.800;9.002;2023-08-31T01:59:47;7.10;;;5.83;;
92;SDS011;16232;48.800;9.002;2023-08-31T02:02:14;6.70;;;4.80;;
92;SDS011;16232;48.800;9.002;2023-08-31T02:04:43;4.63;;;4.10;;
92;SDS011;16232;48.800;9.002;2023-08-31T02:07:10;6.93;;;6.17;;
92;SDS011;16232;48.800;9.002;2023-08-31T02:09:38;11.40;;;5.73;;
92;SDS011;16232;48.800;9.002;2023-08-31T02:12:05;6.40;;;5.80;;
92;SDS011;16232;48.800;9.002;2023-08-31T02:14:34;4.97;;;4.53;;
92;SDS011;16232;48.800;9.002;2023-08-31T02:17:03;8.83;;;6.47;;
92;SDS011;16232;48.800;9.002;2023-08-31T02:19:30;5.80;;;4.57;;
92;SDS011;16232;48.800;9.002;2023-08-31T02:21:58;6.87;;;4.70;;
92;SDS011;16232;48.800;9.002;2023-08-31T02:24:25;6.23;;;4.47;;
92;SDS011;16232;48.800;9.002;2023-08-31T02:26:53;6.37;;;4.77;;
92;SDS011;16232;48.800;9.002;2023-08-31T02:29:20;5.70;;;5.10;;
92;SDS011;16232;48.800;9.002;2023-08-31T02:31:48;6.70;;;5.50;;
92;SDS011;16232;48.800;9.002;2023-08-31T02:34:17;7.80;;;6.70;;
92;SDS011;16232;48.800;9.002;2023-08-31T02:36:44;4.93;;;4.50;;
92;SDS011;16232;48.800;9.002;2023-08-31T02:39:11;8.37;;;5.73;;
92;SDS011;16232;48.800;9.002;2023-08-31T02:41:39;4.90;;;4.50;;
92;SDS011;16232;48.800;9.002;2023-08-31T02:44:06;6.10;;;5.50;;
92;SDS011;16232;48.800;9.002;2023-08-31T02:46:34;6.17;;;5.20;;
92;SDS011;16232;48.800;9.002;2023-08-31T02:49:01;6.57;;;5.30;;
92;SDS011;16232;48.800;9.002;2023-08-31T02:51:30;6.97;;;4.67;;
92;SDS011;16232;48.800;9.002;2023-08-31T02:53:58;4.50;;;3.33;;
92;SDS011;16232;48.800;9.002;2023-08-31T02:56:25;6.50;;;4.87;;
92;SDS011;16232;48.800;9.002;2023-08-31T02:58:53;7.33;;;5.47;;
92;SDS011;16232;48.800;9.002;2023-08-31T03:01:20;5.27;;;3.57;;
92;SDS011;16232;48.800;9.002;2023-08-31T03:03:49;8.47;;;4.60;;
92;SDS011;16232;48.800;9.002;2023-08-31T03:06:17;5.63;;;4.77;;
92;SDS011;16232;48.800;9.002;2023-08-31T03:08:45;5.40;;;4.73;;
92;SDS011;16232;48.800;9.002;2023-08-31T03:11:13;5.77;;;4.27;;
92;SDS011;16232;48.800;9.002;2023-08-31T03:13:41;5.63;;;4.90;;
92;SDS011;16232;48.800;9.002;2023-08-31T03:16:08;5.47;;;4.23;;
92;SDS011;16232;48.800;9.002;2023-08-31T03:18:36;4.47;;;4.07;;
92;SDS011;16232;48.800;9.002;2023-08-31T03:21:03;4.47;;;3.67;;
92;SDS011;16232;48.800;9.002;2023-08-31T03:23:31;7.23;;;5.03;;
92;SDS011;16232;48.800;9.002;2023-08-31T03:26:00;7.73;;;4.97;;
92;SDS011;16232;48.800;9.002;2023-08-31T03:28:33;5.33;;;4.77;;
92;SDS011;16232;48.800;9.002;2023-08-31T03:31:01;4.00;;;3.70;;
92;SDS011;16232;48.800;9.002;2023-08-31T03:33:28;6.03;;;5.03;;
92;SDS011;16232;48.800;9.002;2023-08-31T03:35:59;5.17;;;4.30;;
92;SDS011;16232;48.800;9.002;2023-08-31T03:38:26;6.23;;;4.70;;
92;SDS011;16232;48.800;9.002;2023-08-31T03:40:54;5.00;;;4.50;;
92;SDS011;16232;48.800;9.002;2023-08-31T03:43:24;6.73;;;5.27;;
92;SDS011;16232;48.800;9.002;2023-08-31T03:45:56;6.00;;;5.40;;
92;SDS011;16232;48.800;9.002;2023-08-31T03:48:23;6.00;;;4.87;;
92;SDS011;16232;48.800;9.002;2023-08-31T03:50:51;3.87;;;3.57;;
92;SDS011;16232;48.800;9.002;2023-08-31T03:53:19;7.37;;;5.60;;
92;SDS011;16232;48.800;9.002;2023-08-31T03:55:46;5.93;;;5.23;;
92;SDS011;16232;48.800;9.002;2023-08-31T03:58:14;6.77;;;5.60;;
92;SDS011;16232;48.800;9.002;2023-08-31T04:00:43;7.43;;;5.90;;
92;SDS011;16232;48.800;9.002;2023-08-31T04:03:10;8.60;;;6.00;;
92;SDS011;16232;48.800;9.002;2023-08-31T04:05:38;6.37;;;5.40;;
92;SDS011;16232;48.800;9.002;2023-08-31T04:08:05;7.23;;;6.30;;
92;SDS011;16232;48.800;9.002;2023-08-31T04:10:33;7.47;;;6.03;;
92;SDS011;16232;48.800;9.002;2023-08-31T04:13:00;7.30;;;4.97;;
92;SDS011;16232;48.800;9.002;2023-08-31T04:15:28;5.70;;;4.83;;
92;SDS011;16232;48.800;9.002;2023-08-31T04:17:57;6.33;;;4.80;;
92;SDS011;16232;48.800;9.002;2023-08-31T04:20:25;9.20;;;5.80;;
92;SDS011;16232;48.800;9.002;2023-08-31T04:22:52;6.73;;;6.03;;
92;SDS011;16232;48.800;9.002;2023-08-31T04:25:19;7.17;;;5.17;;
92;SDS011;16232;48.800;9.002;2023-08-31T04:27:47;6.40;;;5.17;;
92;SDS011;16232;48.800;9.002;2023-08-31T04:30:14;7.37;;;5.13;;
92;SDS011;16232;48.800;9.002;2023-08-31T04:32:42;7.77;;;5.27;;
92;SDS011;16232;48.800;9.002;2023-08-31T04:35:13;7.23;;;4.60;;
92;SDS011;16232;48.800;9.002;2023-08-31T04:37:40;5.27;;;4.77;;
92;SDS011;16232;48.800;9.002;2023-08-31T04:40:10;6.10;;;4.40;;
92;SDS011;16232;48.800;9.002;2023-08-31T04:42:38;7.83;;;5.13;;
92;SDS011;16232;48.800;9.002;2023-08-31T04:45:06;5.53;;;4.13;;
92;SDS011;16232;48.800;9.002;2023-08-31T04:47:33;7.90;;;4.67;;
92;SDS011;16232;48.800;9.002;2023-08-31T04:50:01;4.57;;;4.20;;
92;SDS011;16232;48.800;9.002;2023-08-31T04:52:33;5.83;;;4.63;;
92;SDS011;16232;48.800;9.002;2023-08-31T04:55:00;4.43;;;4.03;;
92;SDS011;16232;48.800;9.002;2023-08-31T04:57:28;5.07;;;4.50;;
92;SDS011;16232;48.800;9.002;2023-08-31T04:59:56;7.20;;;4.73;;
92;SDS011;16232;48.800;9.002;2023-08-31T05:02:23;6.50;;;4.90;;
92;SDS011;16232;48.800;9.002;2023-08-31T05:04:51;8.77;;;5.53;;
92;SDS011;16232;48.800;9.002;2023-08-31T05:07:18;8.90;;;5.53;;
92;SDS011;16232;48.800;9.002;2023-08-31T05:09:47;6.90;;;5.20;;
92;SDS011;16232;48.800;9.002;2023-08-31T05:12:15;6.37;;;5.57;;
92;SDS011;16232;48.800;9.002;2023-08-31T05:14:43;8.27;;;4.30;;
92;SDS011;16232;48.800;9.002;2023-08-31T05:17:11;7.17;;;5.10;;
92;SDS011;16232;48.800;9.002;2023-08-31T05:19:38;6.37;;;4.73;;
92;SDS011;16232;48.800;9.002;2023-08-31T05:22:06;6.07;;;5.47;;
92;SDS011;16232;48.800;9.002;2023-08-31T05:24:33;7.53;;;5.93;;
92;SDS011;16232;48.800;9.002;2023-08-31T05:27:02;6.30;;;5.30;;
92;SDS011;16232;48.800;9.002;2023-08-31T05:29:30;5.67;;;5.07;;
92;SDS011;16232;48.800;9.002;2023-08-31T05:31:57;9.60;;;6.33;;
92;SDS011;16232;48.800;9.002;2023-08-31T05:34:25;6.30;;;5.70;;
92;SDS011;16232;48.800;9.002;2023-08-31T05:36:52;6.57;;;5.90;;
92;SDS011;16232;48.800;9.002;2023-08-31T05:39:21;6.47;;;5.87;;
92;SDS011;16232;48.800;9.002;2023-08-31T05:41:48;9.57;;;5.97;;
92;SDS011;16232;48.800;9.002;2023-08-31T05:44:17;6.30;;;5.33;;
92;SDS011;16232;48.800;9.002;2023-08-31T05:46:45;7.37;;;5.50;;
92;SDS011;16232;48.800;9.002;2023-08-31T05:49:12;6.50;;;5.27;;
92;SDS011;16232;48.800;9.002;2023-08-31T05:51:40;7.17;;;6.30;;
92;SDS011;16232;48.800;9.002;2023-08-31T05:54:07;11.47;;;6.93;;
92;SDS011;16232;48.800;9.002;2023-08-31T05:59:05;5.67;;;4.97;;
92;SDS011;16232;48.800;9.002;2023-08-31T06:01:34;6.00;;;5.40;;
92;SDS011;16232;48.800;9.002;2023-08-31T06:04:02;6.70;;;6.03;;
92;SDS011;16232;48.800;9.002;2023-08-31T06:06:30;6.30;;;4.97;;
92;SDS011;16232;48.800;9.002;2023-08-31T06:08:59;7.00;;;5.17;;
92;SDS011;16232;48.800;9.002;2023-08-31T06:11:26;5.33;;;4.83;;
92;SDS011;16232;48.800;9.002;2023-08-31T06:13:54;6.70;;;4.97;;
92;SDS011;16232;48.800;9.002;2023-08-31T06:16:21;8.53;;;6.03;;
92;SDS011;16232;48.800;9.002;2023-08-31T06:18:51;8.47;;;4.97;;
92;SDS011;16232;48.800;9.002;2023-08-31T06:21:19;7.10;;;4.80;;
92;SDS011;16232;48.800;9.002;2023-08-31T06:23:46;6.53;;;4.13;;
92;SDS011;16232;48.800;9.002;2023-08-31T06:26:13;5.23;;;4.30;;
92;SDS011;16232;48.800;9.002;2023-08-31T06:28:41;4.93;;;3.33;;
92;SDS011;16232;48.800;9.002;2023-08-31T06:31:08;7.37;;;3.60;;
92;SDS011;16232;48.800;9.002;2023-08-31T06:33:36;9.17;;;4.07;;
92;SDS011;16232;48.800;9.002;2023-08-31T06:36:05;6.37;;;3.70;;
92;SDS011;16232;48.800;9.002;2023-08-31T06:38:32;6.33;;;3.33;;
92;SDS011;16232;48.800;9.002;2023-08-31T06:41:01;4.47;;;3.30;;
92;SDS011;16232;48.800;9.002;2023-08-31T06:43:29;5.57;;;3.43;;
92;SDS011;16232;48.800;9.002;2023-08-31T06:45:56;6.70;;;2.97;;
92;SDS011;16232;48.800;9.002;2023-08-31T06:48:24;3.20;;;2.30;;
92;SDS011;16232;48.800;9.002;2023-08-31T06:50:51;2.60;;;2.17;;
92;SDS011;16232;48.800;9.002;2023-08-31T06:53:20;2.63;;;2.10;;
92;SDS011;16232;48.800;9.002;2023-08-31T06:55:48;3.07;;;2.17;;
92;SDS011;16232;48.800;9.002;2023-08-31T06:58:15;4.20;;;2.10;;
92;SDS011;16232;48.800;9.002;2023-08-31T07:00:43;3.83;;;2.50;;
92;SDS011;16232;48.800;9.002;2023-08-31T07:03:10;5.43;;;2.30;;
92;SDS011;16232;48.800;9.002;2023-08-31T07:05:41;2.63;;;1.90;;
92;SDS011;16232;48.800;9.002;2023-08-31T07:08:08;3.87;;;2.07;;
92;SDS011;16232;48.800;9.002;2023-08-31T07:10:37;3.87;;;1.90;;
92;SDS011;16232;48.800;9.002;2023-08-31T07:13:05;2.93;;;1.63;;
92;SDS011;16232;48.800;9.002;2023-08-31T07:15:32;2.50;;;1.60;;
92;SDS011;16232;48.800;9.002;2023-08-31T07:18:00;4.47;;;1.47;;
92;SDS011;16232;48.800;9.002;2023-08-31T07:20:27;2.77;;;1.70;;
92;SDS011;16232;48.800;9.002;2023-08-31T07:22:55;1.90;;;1.50;;
92;SDS011;16232;48.800;9.002;2023-08-31T07:25:22;4.10;;;1.77;;
92;SDS011;16232;48.800;9.002;2023-08-31T07:27:51;4.37;;;1.83;;
92;SDS011;16232;48.800;9.002;2023-08-31T07:30:18;2.67;;;1.70;;
92;SDS011;16232;48.800;9.002;2023-08-31T07:32:46;3.60;;;1.80;;
92;SDS011;16232;48.800;9.002;2023-08-31T07:35:13;3.83;;;1.97;;
92;SDS011;16232;48.800;9.002;2023-08-31T07:37:41;2.53;;;1.60;;
92;SDS011;16232;48.800;9.002;2023-08-31T07:40:09;3.33;;;1.50;;
92;SDS011;16232;48.800;9.002;2023-08-31T07:42:36;3.23;;;1.77;;
92;SDS011;16232;48.800;9.002;2023-08-31T07:45:06;1.90;;;1.17;;
92;SDS011;16232;48.800;9.002;2023-08-31T07:47:34;4.70;;;1.73;;
92;SDS011;16232;48.800;9.002;2023-08-31T07:50:01;2.43;;;1.40;;
92;SDS011;16232;48.800;9.002;2023-08-31T07:52:29;3.30;;;1.83;;
92;SDS011;16232;48.800;9.002;2023-08-31T07:54:56;2.30;;;1.60;;
92;SDS011;16232;48.800;9.002;2023-08-31T07:57:24;3.53;;;1.50;;
92;SDS011;16232;48.800;9.002;2023-08-31T07:59:51;4.87;;;2.23;;
92;SDS011;16232;48.800;9.002;2023-08-31T08:02:21;2.93;;;1.63;;
92;SDS011;16232;48.800;9.002;2023-08-31T08:04:48;3.30;;;1.60;;
92;SDS011;16232;48.800;9.002;2023-08-31T08:07:15;5.33;;;1.87;;
92;SDS011;16232;48.800;9.002;2023-08-31T08:09:43;3.53;;;1.50;;
92;SDS011;16232;48.800;9.002;2023-08-31T08:12:10;3.47;;;1.73;;
92;SDS011;16232;48.800;9.002;2023-08-31T08:14:38;4.53;;;1.70;;
92;SDS011;16232;48.800;9.002;2023-08-31T08:17:05;3.77;;;1.60;;
92;SDS011;16232;48.800;9.002;2023-08-31T08:19:34;3.97;;;1.70;;
92;SDS011;16232;48.800;9.002;2023-08-31T08:22:01;3.70;;;1.53;;
92;SDS011;16232;48.800;9.002;2023-08-31T08:24:29;3.07;;;1.57;;
92;SDS011;16232;48.800;9.002;2023-08-31T08:26:56;2.30;;;1.40;;
92;SDS011;16232;48.800;9.002;2023-08-31T08:29:24;3.20;;;1.53;;
92;SDS011;16232;48.800;9.002;2023-08-31T08:31:51;1.83;;;1.57;;
92;SDS011;16232;48.800;9.002;2023-08-31T08:34:19;2.90;;;1.67;;
92;SDS011;16232;48.800;9.002;2023-08-31T08:36:48;3.73;;;1.70;;
92;SDS011;16232;48.800;9.002;2023-08-31T08:39:15;2.87;;;1.67;;
92;SDS011;16232;48.800;9.002;2023-08-31T08:41:43;4.37;;;1.70;;
92;SDS011;16232;48.800;9.002;2023-08-31T08:44:11;2.40;;;1.27;;
92;SDS011;16232;48.800;9.002;2023-08-31T08:46:40;4.90;;;1.70;;
92;SDS011;16232;48.800;9.002;2023-08-31T08:49:07;4.33;;;1.50;;
92;SDS011;16232;48.800;9.002;2023-08-31T08:51:35;2.83;;;1.63;;
92;SDS011;16232;48.800;9.002;2023-08-31T08:54:04;2.63;;;1.57;;
92;SDS011;16232;48.800;9.002;2023-08-31T08:56:32;4.40;;;1.83;;
92;SDS011;16232;48.800;9.002;2023-08-31T08:59:00;3.67;;;1.53;;
92;SDS011;16232;48.800;9.002;2023-08-31T09:01:27;3.53;;;1.50;;
92;SDS011;16232;48.800;9.002;2023-08-31T09:03:55;5.73;;;2.03;;
92;SDS011;16232;48.800;9.002;2023-08-31T09:06:22;7.37;;;2.00;;
92;SDS011;16232;48.800;9.002;2023-08-31T09:08:53;3.80;;;1.63;;
92;SDS011;16232;48.800;9.002;2023-08-31T09:11:23;2.43;;;1.60;;
92;SDS011;16232;48.800;9.002;2023-08-31T09:13:51;3.27;;;1.60;;
92;SDS011;16232;48.800;9.002;2023-08-31T09:16:23;4.23;;;2.00;;
92;SDS011;16232;48.800;9.002;2023-08-31T09:18:51;5.20;;;1.97;;
92;SDS011;16232;48.800;9.002;2023-08-31T09:21:18;3.13;;;1.73;;
92;SDS011;16232;48.800;9.002;2023-08-31T09:23:47;4.07;;;1.53;;
92;SDS011;16232;48.800;9.002;2023-08-31T09:26:14;4.00;;;1.93;;
92;SDS011;16232;48.800;9.002;2023-08-31T09:28:43;2.90;;;1.60;;
92;SDS011;16232;48.800;9.002;2023-08-31T09:31:11;2.57;;;1.67;;
92;SDS011;16232;48.800;9.002;2023-08-31T09:33:38;2.17;;;1.40;;
92;SDS011;16232;48.800;9.002;2023-08-31T09:36:16;2.47;;;1.20;;
92;SDS011;16232;48.800;9.002;2023-08-31T09:38:44;2.90;;;1.60;;
92;SDS011;16232;48.800;9.002;2023-08-31T09:41:11;3.07;;;1.50;;
92;SDS011;16232;48.800;9.002;2023-08-31T09:43:40;2.50;;;1.43;;
92;SDS011;16232;48.800;9.002;2023-08-31T09:46:09;2.43;;;1.67;;
92;SDS011;16232;48.800;9.002;2023-08-31T09:48:36;2.63;;;1.40;;
92;SDS011;16232;48.800;9.002;2023-08-31T09:51:07;2.20;;;1.23;;
92;SDS011;16232;48.800;9.002;2023-08-31T09:53:35;3.90;;;1.80;;
92;SDS011;16232;48.800;9.002;2023-08-31T09:56:04;3.43;;;1.80;;
92;SDS011;16232;48.800;9.002;2023-08-31T09:58:32;2.83;;;1.60;;
92;SDS011;16232;48.800;9.002;2023-08-31T10:01:00;3.57;;;1.67;;
92;SDS011;16232;48.800;9.002;2023-08-31T10:03:30;6.33;;;2.07;;
92;SDS011;16232;48.800;9.002;2023-08-31T10:05:57;5.20;;;2.13;;
92;SDS011;16232;48.800;9.002;2023-08-31T10:08:26;3.70;;;1.77;;
92;SDS011;16232;48.800;9.002;2023-08-31T10:10:58;3.13;;;1.67;;
92;SDS011;16232;48.800;9.002;2023-08-31T10:13:26;2.37;;;1.83;;
92;SDS011;16232;48.800;9.002;2023-08-31T10:15:57;4.97;;;1.90;;
92;SDS011;16232;48.800;9.002;2023-08-31T10:18:24;5.67;;;2.10;;
92;SDS011;16232;48.800;9.002;2023-08-31T10:20:53;3.17;;;1.63;;
92;SDS011;16232;48.800;9.002;2023-08-31T10:23:20;3.60;;;1.90;;
92;SDS011;16232;48.800;9.002;2023-08-31T10:26:01;2.57;;;1.80;;
92;SDS011;16232;48.800;9.002;2023-08-31T10:28:29;3.50;;;2.03;;
92;SDS011;16232;48.800;9.002;2023-08-31T10:31:00;4.00;;;1.83;;
92;SDS011;16232;48.800;9.002;2023-08-31T10:33:28;5.00;;;1.80;;
92;SDS011;16232;48.800;9.002;2023-08-31T10:35:59;7.20;;;1.93;;
92;SDS011;16232;48.800;9.002;2023-08-31T10:38:27;5.43;;;2.50;;
92;SDS011;16232;48.800;9.002;2023-08-31T10:41:03;3.70;;;1.77;;
92;SDS011;16232;48.800;9.002;2023-08-31T10:43:43;4.87;;;2.20;;
92;SDS011;16232;48.800;9.002;2023-08-31T10:46:14;3.43;;;1.83;;
92;SDS011;16232;48.800;9.002;2023-08-31T10:48:49;4.90;;;1.90;;
92;SDS011;16232;48.800;9.002;2023-08-31T10:51:18;2.97;;;1.73;;
92;SDS011;16232;48.800;9.002;2023-08-31T10:53:45;6.60;;;2.20;;
92;SDS011;16232;48.800;9.002;2023-08-31T10:56:15;5.37;;;1.73;;
92;SDS011;16232;48.800;9.002;2023-08-31T10:58:42;2.90;;;1.60;;
92;SDS011;16232;48.800;9.002;2023-08-31T11:01:10;4.87;;;2.20;;
92;SDS011;16232;48.800;9.002;2023-08-31T11:03:56;5.93;;;1.90;;
92;SDS011;16232;48.800;9.002;2023-08-31T11:06:25;4.20;;;2.17;;
92;SDS011;16232;48.800;9.002;2023-08-31T11:08:55;4.73;;;2.27;;
92;SDS011;16232;48.800;9.002;2023-08-31T11:11:23;5.47;;;2.00;;
92;SDS011;16232;48.800;9.002;2023-08-31T11:13:56;3.60;;;2.10;;
92;SDS011;16232;48.800;9.002;2023-08-31T11:16:24;4.00;;;1.73;;
92;SDS011;16232;48.800;9.002;2023-08-31T11:18:52;13.00;;;2.37;;
92;SDS011;16232;48.800;9.002;2023-08-31T11:21:20;3.70;;;1.83;;
92;SDS011;16232;48.800;9.002;2023-08-31T11:23:49;4.17;;;1.80;;
92;SDS011;16232;48.800;9.002;2023-08-31T11:26:23;3.83;;;2.03;;
92;SDS011;16232;48.800;9.002;2023-08-31T11:28:50;2.57;;;1.80;;
92;SDS011;16232;48.800;9.002;2023-08-31T11:31:22;4.57;;;1.90;;
92;SDS011;16232;48.800;9.002;2023-08-31T11:33:50;4.30;;;1.83;;
92;SDS011;16232;48.800;9.002;2023-08-31T11:36:18;3.37;;;1.83;;
92;SDS011;16232;48.800;9.002;2023-08-31T11:38:46;4.00;;;1.87;;
92;SDS011;16232;48.800;9.002;2023-08-31T11:41:15;6.17;;;2.10;;
92;SDS011;16232;48.800;9.002;2023-08-31T11:43:43;3.30;;;1.90;;
92;SDS011;16232;48.800;9.002;2023-08-31T11:46:11;3.43;;;1.70;;
92;SDS011;16232;48.800;9.002;2023-08-31T11:48:38;2.73;;;2.13;;
92;SDS011;16232;48.800;9.002;2023-08-31T11:51:06;3.00;;;1.80;;
92;SDS011;16232;48.800;9.002;2023-08-31T11:53:35;4.20;;;1.63;;
92;SDS011;16232;48.800;9.002;2023-08-31T11:56:02;5.83;;;1.80;;
92;SDS011;16232;48.800;9.002;2023-08-31T11:58:31;3.87;;;1.97;;
92;SDS011;16232;48.800;9.002;2023-08-31T12:00:59;3.67;;;1.70;;
92;SDS011;16232;48.800;9.002;2023-08-31T12:03:26;3.43;;;2.07;;
92;SDS011;16232;48.800;9.002;2023-08-31T12:05:54;2.50;;;1.53;;
92;SDS011;16232;48.800;9.002;2023-08-31T12:08:23;3.93;;;1.70;;
92;SDS011;16232;48.800;9.002;2023-08-31T12:10:51;4.33;;;1.70;;
92;SDS011;16232;48.800;9.002;2023-08-31T12:13:19;5.30;;;1.90;;
92;SDS011;16232;48.800;9.002;2023-08-31T12:15:48;3.03;;;1.63;;
92;SDS011;16232;48.800;9.002;2023-08-31T12:18:20;5.50;;;2.00;;
92;SDS011;16232;48.800;9.002;2023-08-31T12:20:47;3.17;;;1.63;;
92;SDS011;16232;48.800;9.002;2023-08-31T12:23:16;2.80;;;1.70;;
92;SDS011;16232;48.800;9.002;2023-08-31T12:25:47;4.10;;;1.87;;
92;SDS011;16232;48.800;9.002;2023-08-31T12:28:14;5.03;;;2.10;;
92;SDS011;16232;48.800;9.002;2023-08-31T12:30:42;3.63;;;1.67;;
92;SDS011;16232;48.800;9.002;2023-08-31T12:33:11;4.07;;;1.87;;
92;SDS011;16232;48.800;9.002;2023-08-31T12:35:38;3.10;;;1.80;;
92;SDS011;16232;48.800;9.002;2023-08-31T12:38:06;4.20;;;1.50;;
92;SDS011;16232;48.800;9.002;2023-08-31T12:40:33;4.83;;;1.90;;
92;SDS011;16232;48.800;9.002;2023-08-31T12:43:01;2.27;;;1.50;;
92;SDS011;16232;48.800;9.002;2023-08-31T12:45:29;3.33;;;1.90;;
92;SDS011;16232;48.800;9.002;2023-08-31T12:47:57;3.57;;;1.97;;
92;SDS011;16232;48.800;9.002;2023-08-31T12:50:26;4.53;;;2.63;;
92;SDS011;16232;48.800;9.002;2023-08-31T12:52:53;3.20;;;2.10;;
92;SDS011;16232;48.800;9.002;2023-08-31T12:55:20;5.40;;;1.80;;
92;SDS011;16232;48.800;9.002;2023-08-31T12:57:48;4.57;;;1.73;;
92;SDS011;16232;48.800;9.002;2023-08-31T13:00:16;3.70;;;1.60;;
92;SDS011;16232;48.800;9.002;2023-08-31T13:02:44;4.40;;;1.93;;
92;SDS011;16232;48.800;9.002;2023-08-31T13:05:12;3.23;;;1.80;;
92;SDS011;16232;48.800;9.002;2023-08-31T13:07:40;3.20;;;1.60;;
92;SDS011;16232;48.800;9.002;2023-08-31T13:10:08;3.70;;;1.90;;
92;SDS011;16232;48.800;9.002;2023-08-31T13:12:36;3.63;;;1.80;;
92;SDS011;16232;48.800;9.002;2023-08-31T13:15:04;5.20;;;2.10;;
92;SDS011;16232;48.800;9.002;2023-08-31T13:17:33;4.03;;;2.10;;
92;SDS011;16232;48.800;9.002;2023-08-31T13:20:01;2.83;;;1.40;;
92;SDS011;16232;48.800;9.002;2023-08-31T13:22:29;2.17;;;1.60;;
92;SDS011;16232;48.800;9.002;2023-08-31T13:24:58;8.37;;;2.23;;
92;SDS011;16232;48.800;9.002;2023-08-31T13:27:26;6.53;;;1.97;;
92;SDS011;16232;48.800;9.002;2023-08-31T13:29:54;7.30;;;2.03;;
92;SDS011;16232;48.800;9.002;2023-08-31T13:32:22;4.10;;;1.73;;
92;SDS011;16232;48.800;9.002;2023-08-31T13:34:49;3.73;;;1.93;;
92;SDS011;16232;48.800;9.002;2023-08-31T13:37:17;4.43;;;2.13;;
92;SDS011;16232;48.800;9.002;2023-08-31T13:39:44;3.83;;;1.90;;
92;SDS011;16232;48.800;9.002;2023-08-31T13:42:13;4.40;;;1.90;;
92;SDS011;16232;48.800;9.002;2023-08-31T13:44:41;3.70;;;1.67;;
92;SDS011;16232;48.800;9.002;2023-08-31T13:47:08;4.87;;;1.80;;
92;SDS011;16232;48.800;9.002;2023-08-31T13:49:36;5.67;;;1.73;;
92;SDS011;16232;48.800;9.002;2023-08-31T13:52:04;2.93;;;1.63;;
92;SDS011;16232;48.800;9.002;2023-08-31T13:54:33;3.10;;;1.80;;
92;SDS011;16232;48.800;9.002;2023-08-31T13:57:00;3.33;;;1.90;;
92;SDS011;16232;48.800;9.002;2023-08-31T13:59:29;3.07;;;1.77;;
92;SDS011;16232;48.800;9.002;2023-08-31T14:01:57;2.57;;;1.83;;
92;SDS011;16232;48.800;9.002;2023-08-31T14:04:24;6.50;;;2.57;;
92;SDS011;16232;48.800;9.002;2023-08-31T14:06:51;4.90;;;2.00;;
92;SDS011;16232;48.800;9.002;2023-08-31T14:09:19;4.53;;;1.80;;
92;SDS011;16232;48.800;9.002;2023-08-31T14:11:46;5.10;;;2.07;;
92;SDS011;16232;48.800;9.002;2023-08-31T14:14:14;3.50;;;1.60;;
92;SDS011;16232;48.800;9.002;2023-08-31T14:16:43;4.43;;;1.80;;
92;SDS011;16232;48.800;9.002;2023-08-31T14:19:11;7.63;;;2.13;;
92;SDS011;16232;48.800;9.002;2023-08-31T14:21:38;7.83;;;2.17;;
92;SDS011;16232;48.800;9.002;2023-08-31T14:24:06;9.03;;;2.17;;
92;SDS011;16232;48.800;9.002;2023-08-31T14:26:33;8.90;;;2.50;;
92;SDS011;16232;48.800;9.002;2023-08-31T14:29:01;6.77;;;2.07;;
92;SDS011;16232;48.800;9.002;2023-08-31T14:31:28;6.97;;;2.07;;
92;SDS011;16232;48.800;9.002;2023-08-31T14:33:57;7.77;;;2.07;;
92;SDS011;16232;48.800;9.002;2023-08-31T14:36:25;5.73;;;1.93;;
92;SDS011;16232;48.800;9.002;2023-08-31T14:38:53;4.50;;;2.03;;
92;SDS011;16232;48.800;9.002;2023-08-31T14:41:20;6.50;;;1.90;;
92;SDS011;16232;48.800;9.002;2023-08-31T14:43:47;5.37;;;1.93;;
92;SDS011;16232;48.800;9.002;2023-08-31T14:46:15;5.93;;;2.10;;
92;SDS011;16232;48.800;9.002;2023-08-31T14:48:42;3.87;;;2.03;;
92;SDS011;16232;48.800;9.002;2023-08-31T14:51:11;5.37;;;1.83;;
92;SDS011;16232;48.800;9.002;2023-08-31T14:53:39;3.73;;;1.83;;
92;SDS011;16232;48.800;9.002;2023-08-31T14:56:06;4.13;;;2.10;;
92;SDS011;16232;48.800;9.002;2023-08-31T14:58:34;4.27;;;2.23;;
92;SDS011;16232;48.800;9.002;2023-08-31T15:01:01;6.43;;;2.27;;
92;SDS011;16232;48.800;9.002;2023-08-31T15:03:29;5.80;;;2.27;;
92;SDS011;16232;48.800;9.002;2023-08-31T15:05:57;3.50;;;1.70;;
92;SDS011;16232;48.800;9.002;2023-08-31T15:08:35;5.53;;;2.40;;
92;SDS011;16232;48.800;9.002;2023-08-31T15:11:03;5.33;;;2.27;;
92;SDS011;16232;48.800;9.002;2023-08-31T15:13:31;2.43;;;1.90;;
92;SDS011;16232;48.800;9.002;2023-08-31T15:15:58;5.00;;;2.37;;
92;SDS011;16232;48.800;9.002;2023-08-31T15:18:26;3.87;;;2.20;;
92;SDS011;16232;48.800;9.002;2023-08-31T15:20:53;8.07;;;2.33;;
92;SDS011;16232;48.800;9.002;2023-08-31T15:23:21;4.17;;;1.80;;
92;SDS011;16232;48.800;9.002;2023-08-31T15:25:50;3.93;;;1.80;;
92;SDS011;16232;48.800;9.002;2023-08-31T15:28:18;5.10;;;1.93;;
92;SDS011;16232;48.800;9.002;2023-08-31T15:30:45;4.10;;;2.20;;
92;SDS011;16232;48.800;9.002;2023-08-31T15:33:13;5.23;;;1.90;;
92;SDS011;16232;48.800;9.002;2023-08-31T15:35:40;4.37;;;2.07;;
92;SDS011;16232;48.800;9.002;2023-08-31T15:38:08;5.60;;;2.50;;